Terminal Aerodrome Forecast
Issued by NWS Grand Forks, ND

Home | Current Version | Previous Version | Text Only | Print | Product List | Glossary Off
Versions: 1 2 3 4 5 6 7 8 9 10 11 12 13 14 15 16 17 18 19 20 21 22 23 24 25

681
FTUS43 KFGF 271416 AAB
TAFFAR
TAF AMD
KFAR 271416Z 2714/2812 VRB04KT 1/4SM FG VV002
      TEMPO 2717/2718 3SM BR
     FM272100 VRB03KT P6SM SCT025=

USA.gov is the U.S. government's official web portal to all federal, state and local government web resources and services.